Etusivu
METAR-TAF:

METAR-TAF

Lentoasemat :

Sotilaslentoasema

Niederstetten, Saksa

Leveyspiiri: 49-24N, Pituuspiiri: 009-58E, korkeus merenpinnasta: 468 m

Tämänhetkinen sää

Tämä raportti tehtiin 59 minuuttia sitten, kello 17.20 UTC
Tuuli 4 kn luoteesta
Lämpötila 23°C
Kosteus 44%
Ilmanpaine 1020 hPa
Näkyvyys 10 km tai enemmän
Muutamia pilviä 5000 ft:n korkeudessa
Hajanaisia pilviä 34000 ft:n korkeudessa

METAR: ETHN 151720Z 32004KT 9999 FEW050 SCT340 23/10 Q1020 BLU+BLU+

Aika: 20:19 (18:19 UTC)

Sääennuste

Tämä raportti tehtiin 53 minuuttia sitten, kello 17.26 UTC
Ennuste voimassa 15. päivästä klo 17 UTC - 16. päivään klo 02 UTC
Tuuli 5 kn lännestä/luoteesta
Näkyvyys 10 km tai enemmän
Hajanaisia pilviä 30000 ft:n korkeudessa

TAF: ETHN 151726Z 1517/1602 30005KT 9999 NSW SCT300

Säähavainnot ja -ennusteet yli 4000 lentoasemalta (METAR- ja TAF-raportit).

Käytössä olevat sääasemat on merkitty karttaan keltaisilla ja punaisilla pisteillä.

Aseta hiiri pisteen päälle nähdäksesi sääaseman nimen.

Klikkaa sitten nähdäksesi säähavainnot ja -ennusteet.

Kartan vaihtaminen: klikkaa mustalla rastilla varustettuja vihreitä pisteitä, niin voit zoomata sisään; viivalla varustettua vihreää pistettä, niin voit zoomata ulos tai vihreitä nuolia, niin pääset viereisille kartoille.


METAR-TAF: